Airfield :
LOGIN :

Register | Disclaimer

   EN    FR    IT 

 










Legend :    VFR   Marginal VFR   IFR   Intensive IFR   Very Intensive IFR
Visi :
Ceiling :
>= 8 km
>= 3000ft
5 to 8 km
1000 to 3000 ft
1500m to 5 km
500 to 1000 ft
800 to 1500m
200 to 500 ft
< 800m
< 200 ft
Symbols :   Thunderstorms  Fog  Heavy snow  Heavy precipitations  Wind > 20 kt
SIGMETs :     Misc.  Thunderstorms  Icing  Turbulence  Mountain Waves  Volcanic Ashes






- Airport Elevation : 218 ft
- IATA code : LBG


LFPB - Paris / Le Bourget

CURRENT METAR :
  • 092100Z AUTO 08006KT CAVOK 21/14 Q1010 NOSIG

EXPIRED METARs :
  • 092030Z AUTO 05006KT CAVOK 24/13 Q1009 NOSIG
  • 092000Z AUTO 06007KT CAVOK 24/13 Q1009 NOSIG
  • 091930Z AUTO 06007KT CAVOK 25/13 Q1009 NOSIG
  • 091900Z AUTO 07009KT CAVOK 27/11 Q1009 TEMPO SCT080TCU
  • 091830Z AUTO 06009KT CAVOK 28/12 Q1008 TEMPO SCT080TCU

TAF TAF LFPB
Valid from the 09 at 18:00 until the 10 at 18:00 UTC


091700Z 0918/1018 08012KT CAVOK
PROB30
TEMPO 0918/0920 SCT080TCU
BECMG 1008/1010 16010KT
BECMG 1010/1011 FEW070TCU
PROB40
TEMPO 1011/1018 -TSRA SCT070CB
PROB30
TEMPO 1014/1016 VRB15G30KT 3000 TSRAGS SCT070CB
ATIS : +33 1 48 62 43 92



MET'MAP, your aeronautical weather chart ! - Copyright ORBIFLY December 2007 - Disclaimer

ORBIFLY MET'MAP TEAM :

Programming & Development : Alexandra Zaïnal
Original concept : Baudouin d'Aumeries
Technical & hardware support : Manuel Goepfert
Assistance : Marc-Olivier Méhu




SOURCES & CREDITS :

   NOAA